Terminal Aerodrome Forecast
Issued by NWS

Home | Current Version | Previous Version | Graphics & Text | Print | Product List | Glossary On
Versions: 1 2 3 4 5 6 7 8 9 10 11 12 13 14 15 16 17 18 19 20 21 22 23 24 25 26 27 28
000
FTUS43 KLSX 230520
TAFSUS
TAF
KSUS 230520Z 2306/2406 32007KT 6SM -RA BR SCT015 OVC050
      TEMPO 2306/2308 4SM -RA BR BKN015
     FM231000 31006KT P6SM BKN035 OVC120
      TEMPO 2310/2312 -RA
     FM231500 28009KT P6SM SCT040 BKN120
     FM240000 30015G23KT P6SM SCT040 BKN250=

USA.gov is the U.S. government's official web portal to all federal, state and local government web resources and services.